createdAt,value
2022-12-22T00:02:21.145Z,24.02
2022-12-22T00:07:42.875Z,21.38
2022-12-22T00:13:05.262Z,26.75
2022-12-22T00:18:33.458Z,26.60
2022-12-22T00:23:55.025Z,26.35
2022-12-22T00:29:17.642Z,25.90
2022-12-22T00:34:40.799Z,23.73
2022-12-22T00:40:01.737Z,24.48
2022-12-22T00:45:23.362Z,22.88
2022-12-22T00:50:52.225Z,21.95
2022-12-22T00:56:13.219Z,22.42
2022-12-22T01:01:34.418Z,22.60
2022-12-22T01:06:55.567Z,21.70
2022-12-22T01:12:16.997Z,20.75
2022-12-22T01:17:38.170Z,22.23
2022-12-22T01:22:59.531Z,24.05
2022-12-22T01:28:21.120Z,23.85
2022-12-22T01:33:42.181Z,24.42
2022-12-22T01:39:03.686Z,26.08
2022-12-22T01:44:34.197Z,27.40
2022-12-22T01:50:01.509Z,25.73
2022-12-22T01:55:31.221Z,28.27
2022-12-22T02:00:52.542Z,28.63
2022-12-22T02:06:29.903Z,26.77
2022-12-22T02:12:23.228Z,30.63
2022-12-22T02:18:10.970Z,31.58
2022-12-22T02:24:10.760Z,30.13
2022-12-22T02:29:35.609Z,30.58
2022-12-22T02:34:58.152Z,29.77
2022-12-22T02:40:42.678Z,31.00
2022-12-22T02:46:03.796Z,31.65
2022-12-22T02:51:38.031Z,31.17
2022-12-22T02:56:59.705Z,31.60
2022-12-22T03:02:21.834Z,30.10
2022-12-22T03:07:43.114Z,31.77
2022-12-22T03:13:04.995Z,33.15
2022-12-22T03:18:28.195Z,34.20
2022-12-22T03:23:49.172Z,34.72
2022-12-22T03:28:52.472Z,30.98
2022-12-22T03:33:55.278Z,31.25
2022-12-22T03:38:57.861Z,32.40
2022-12-22T03:44:19.124Z,31.77
2022-12-22T03:49:23.016Z,31.10
2022-12-22T03:54:26.756Z,33.90
2022-12-22T03:59:29.475Z,34.97
2022-12-22T04:04:32.176Z,30.70
2022-12-22T04:09:35.137Z,36.50
2022-12-22T04:14:37.811Z,33.17
2022-12-22T04:19:40.868Z,32.75
2022-12-22T04:24:43.892Z,31.83
2022-12-22T04:29:47.239Z,35.65
2022-12-22T04:34:49.793Z,36.65
2022-12-22T04:39:52.379Z,34.75
2022-12-22T04:44:54.898Z,34.63
2022-12-22T04:49:57.513Z,33.08
2022-12-22T04:55:00.212Z,33.40
2022-12-22T05:00:04.572Z,33.78
2022-12-22T05:05:07.797Z,35.22
2022-12-22T05:10:11.177Z,33.47
2022-12-22T05:15:13.735Z,34.67
2022-12-22T05:20:17.576Z,33.15
2022-12-22T05:25:20.453Z,33.78
2022-12-22T05:30:23.682Z,32.28
2022-12-22T05:35:26.812Z,31.88
2022-12-22T05:40:29.692Z,31.90
2022-12-22T05:45:32.244Z,33.20
2022-12-22T05:50:34.876Z,30.20
2022-12-22T05:55:40.522Z,30.75
2022-12-22T06:00:49.237Z,32.35
2022-12-22T06:05:52.234Z,31.00
2022-12-22T06:10:58.864Z,25.75
2022-12-22T06:16:01.381Z,28.75
2022-12-22T06:21:05.540Z,27.60
2022-12-22T06:26:08.867Z,23.98
2022-12-22T06:31:12.186Z,23.83
2022-12-22T06:36:15.792Z,25.05
2022-12-22T06:41:38.360Z,24.08
2022-12-22T06:46:59.506Z,26.42
2022-12-22T06:52:07.778Z,27.98
2022-12-22T06:57:10.856Z,28.13
2022-12-22T07:02:13.699Z,32.90
2022-12-22T07:07:18.465Z,33.08
2022-12-22T07:12:22.569Z,36.93
2022-12-22T07:17:25.104Z,42.53
2022-12-22T07:22:30.481Z,46.67
2022-12-22T07:27:33.618Z,41.08
2022-12-22T07:32:37.065Z,43.75
2022-12-22T07:37:39.692Z,41.25
2022-12-22T07:42:44.915Z,42.92
2022-12-22T07:47:48.693Z,45.85
2022-12-22T07:53:02.880Z,36.03
2022-12-22T07:58:06.406Z,42.50
2022-12-22T08:03:10.567Z,42.63
2022-12-22T08:08:13.748Z,42.85
2022-12-22T08:13:16.830Z,41.33
2022-12-22T08:18:39.045Z,42.88
2022-12-22T08:23:41.855Z,38.28
2022-12-22T08:28:58.758Z,37.20
2022-12-22T08:34:04.802Z,34.75
2022-12-22T08:39:08.190Z,29.13
2022-12-22T08:44:12.068Z,26.73
2022-12-22T08:49:14.759Z,24.90
2022-12-22T08:54:17.665Z,20.48
2022-12-22T08:59:20.745Z,17.92
2022-12-22T09:04:25.606Z,18.85
2022-12-22T09:09:31.768Z,16.75
2022-12-22T09:14:34.572Z,17.08
2022-12-22T09:19:37.288Z,17.52
2022-12-22T09:24:39.993Z,22.35
2022-12-22T09:29:43.128Z,19.13
2022-12-22T09:34:45.828Z,18.35
2022-12-22T09:39:48.620Z,15.93
2022-12-22T09:44:51.966Z,16.42
2022-12-22T09:49:56.561Z,17.77
2022-12-22T09:54:59.174Z,15.02
2022-12-22T10:00:14.708Z,17.30
2022-12-22T10:05:28.410Z,14.63
2022-12-22T10:10:32.909Z,16.17
2022-12-22T10:15:39.366Z,13.90
2022-12-22T10:20:43.455Z,15.98
2022-12-22T10:26:31.941Z,12.82
2022-12-22T10:31:39.799Z,11.07
2022-12-22T10:36:57.332Z,12.60
2022-12-22T10:42:09.363Z,11.73
2022-12-22T10:47:18.243Z,13.50
2022-12-22T10:52:30.077Z,12.43
2022-12-22T10:57:33.318Z,12.90
2022-12-22T11:02:39.641Z,14.23
2022-12-22T11:07:49.289Z,12.13
2022-12-22T11:13:11.832Z,10.25
2022-12-22T11:18:17.527Z,12.48
2022-12-22T11:23:48.214Z,8.15
2022-12-22T11:29:16.175Z,12.40
2022-12-22T11:34:43.656Z,11.20
2022-12-22T11:39:59.610Z,11.80
2022-12-22T11:45:20.552Z,13.00
2022-12-22T11:51:01.920Z,12.05
2022-12-22T11:56:22.096Z,12.60
2022-12-22T12:01:43.814Z,12.20
2022-12-22T12:07:08.132Z,12.85
2022-12-22T12:17:41.852Z,16.05
2022-12-22T12:23:22.317Z,17.02
2022-12-22T12:28:36.777Z,16.00
2022-12-22T12:34:02.174Z,19.02
2022-12-22T12:39:28.057Z,17.20
2022-12-22T12:44:39.604Z,15.30
2022-12-22T12:50:03.347Z,16.42
2022-12-22T12:55:31.914Z,15.20
2022-12-22T13:00:58.824Z,11.20
2022-12-22T13:06:04.645Z,9.98
2022-12-22T13:11:07.124Z,9.27
2022-12-22T13:16:15.823Z,12.30
2022-12-22T13:21:52.312Z,14.75
2022-12-22T13:26:52.137Z,14.05
2022-12-22T13:32:04.979Z,13.10
2022-12-22T13:37:39.440Z,13.07
2022-12-22T13:42:57.131Z,13.55
2022-12-22T13:48:01.708Z,14.77
2022-12-22T13:53:07.571Z,13.43
2022-12-22T13:58:29.777Z,14.85
2022-12-22T14:03:59.012Z,10.77
2022-12-22T14:09:21.014Z,11.73
2022-12-22T14:14:29.424Z,14.40
2022-12-22T14:19:36.630Z,15.15
2022-12-22T14:24:48.053Z,16.65
2022-12-22T14:29:51.330Z,15.02
2022-12-22T14:34:54.484Z,17.08
2022-12-22T14:39:58.653Z,15.55
2022-12-22T14:45:01.181Z,17.33
2022-12-22T14:50:25.069Z,16.05
2022-12-22T14:55:27.603Z,15.93
2022-12-22T15:00:42.444Z,15.77
2022-12-22T15:05:45.542Z,18.15
2022-12-22T15:10:48.105Z,15.45
2022-12-22T15:15:53.860Z,19.27
2022-12-22T15:20:57.147Z,13.32
2022-12-22T15:25:59.796Z,16.98
2022-12-22T15:31:03.851Z,17.77
2022-12-22T15:36:09.635Z,22.80
2022-12-22T15:41:12.195Z,23.42
2022-12-22T15:46:18.111Z,22.40
2022-12-22T15:51:24.161Z,25.88
2022-12-22T15:56:28.290Z,26.27
2022-12-22T16:01:31.134Z,27.63
2022-12-22T16:06:33.690Z,26.20
2022-12-22T16:11:38.265Z,27.20
2022-12-22T16:21:49.613Z,27.75
2022-12-22T16:26:52.478Z,28.17
2022-12-22T16:32:21.478Z,27.30
2022-12-22T16:37:26.482Z,26.77
2022-12-22T16:47:53.117Z,30.02
2022-12-22T16:52:55.889Z,28.70
2022-12-22T16:57:58.482Z,28.77
2022-12-22T17:03:04.268Z,28.73
2022-12-22T17:08:08.518Z,26.88
2022-12-22T17:13:11.853Z,29.03
2022-12-22T17:18:19.438Z,25.00
2022-12-22T17:23:28.725Z,27.60
2022-12-22T17:28:31.470Z,24.98
2022-12-22T17:33:34.279Z,25.23
2022-12-22T17:38:38.176Z,23.25
2022-12-22T17:43:41.042Z,23.35
2022-12-22T17:48:44.837Z,22.73
2022-12-22T17:53:47.776Z,22.80
2022-12-22T17:58:50.670Z,22.70
2022-12-22T18:03:53.704Z,20.38
2022-12-22T18:08:56.779Z,20.25
2022-12-22T18:14:00.302Z,20.98
2022-12-22T18:19:03.079Z,21.48
2022-12-22T18:24:06.245Z,21.52
2022-12-22T18:29:18.712Z,21.88
2022-12-22T18:34:24.490Z,20.33
2022-12-22T18:39:27.271Z,20.95
2022-12-22T18:44:30.168Z,19.23
2022-12-22T18:49:33.333Z,19.85
2022-12-22T18:54:38.589Z,20.67
2022-12-22T18:59:41.490Z,18.13
2022-12-22T19:04:44.243Z,19.77
2022-12-22T19:09:47.489Z,19.55
2022-12-22T19:14:52.770Z,21.42
2022-12-22T19:19:56.459Z,18.35
2022-12-22T19:24:59.388Z,20.73
2022-12-22T19:30:04.399Z,20.90
2022-12-22T19:35:15.418Z,20.33
2022-12-22T19:40:19.805Z,18.52
2022-12-22T19:45:43.634Z,20.70
2022-12-22T19:50:47.519Z,18.80
2022-12-22T19:55:55.487Z,19.27
2022-12-22T20:00:58.707Z,20.58
2022-12-22T20:06:01.857Z,21.65
2022-12-22T20:11:07.304Z,21.42
2022-12-22T20:16:14.596Z,22.50
2022-12-22T20:21:28.360Z,24.67
2022-12-22T20:26:32.583Z,23.35
2022-12-22T20:31:36.592Z,24.55
2022-12-22T20:36:39.356Z,28.43
2022-12-22T20:41:47.072Z,27.40
2022-12-22T20:46:53.194Z,28.45
2022-12-22T20:51:58.115Z,28.45
2022-12-22T20:57:00.672Z,26.70
2022-12-22T21:02:04.143Z,25.35
2022-12-22T21:07:07.084Z,31.15
2022-12-22T21:12:09.626Z,27.55
2022-12-22T21:17:21.730Z,25.30
2022-12-22T21:22:24.348Z,26.05
2022-12-22T21:27:29.975Z,23.27
2022-12-22T21:32:32.591Z,25.80
2022-12-22T21:37:35.956Z,23.30
2022-12-22T21:42:38.501Z,24.65
2022-12-22T21:47:42.196Z,28.83
2022-12-22T21:52:51.130Z,26.90
2022-12-22T21:57:53.903Z,27.00
2022-12-22T22:02:57.558Z,29.45
2022-12-22T22:08:02.990Z,21.30
2022-12-22T22:13:06.078Z,29.10
2022-12-22T22:18:17.751Z,27.33
2022-12-22T22:23:20.661Z,27.83
2022-12-22T22:28:23.295Z,27.80
2022-12-22T22:33:25.882Z,24.40
2022-12-22T22:38:30.573Z,24.52
2022-12-22T22:43:34.209Z,23.63
2022-12-22T22:48:37.302Z,18.33
2022-12-22T22:53:39.881Z,21.42
2022-12-22T22:58:42.655Z,19.20
2022-12-22T23:03:45.534Z,19.63
2022-12-22T23:08:49.175Z,19.15
2022-12-22T23:13:56.093Z,17.70
2022-12-22T23:18:58.659Z,14.52
2022-12-22T23:24:01.874Z,15.68
2022-12-22T23:29:04.455Z,14.55
2022-12-22T23:34:06.969Z,15.02
2022-12-22T23:39:09.567Z,18.38
2022-12-22T23:44:12.750Z,14.27
2022-12-22T23:49:15.322Z,17.55
2022-12-22T23:54:17.850Z,18.88
2022-12-22T23:59:20.597Z,17.23
